This is the latest recevied weather packets stored in our database for station/object N3WMC. If no packets are shown the sender has not sent any weather packets the latest 10 day(s).
| Time | Temp. | Humidity | Pressure | Rain* | Wind** | Luminosity | Snow |
|---|---|---|---|---|---|---|---|
| 1787851909 | 27.78° C | 66% | 1015.8 hPa | 0 mm | - | 380 W/m² | - |
| 1787851608 | 26.67° C | 69% | 1015.8 hPa | 0 mm | - | 620 W/m² | - |
| 1787851303 | 27.22° C | 70% | 1015.9 hPa | 0 mm | - | 377 W/m² | - |
| 1787850998 | 26.67° C | 70% | 1015.7 hPa | 0 mm | - | 380 W/m² | - |
| 1787850694 | 27.22° C | 68% | 1015.8 hPa | 0 mm | - | 293 W/m² | - |
| 1787850390 | 26.67° C | 70% | 1016 hPa | 0 mm | - | 334 W/m² | - |
| 1787850085 | 26.67° C | 69% | 1015.9 hPa | 0 mm | - | 358 W/m² | - |
| 1787849784 | 27.22° C | 68% | 1015.8 hPa | 0 mm | - | 459 W/m² | - |
| 1787849479 | 27.22° C | 68% | 1015.8 hPa | 0 mm | - | 658 W/m² | - |
| 1787849178 | 25.56° C | 73% | 1016 hPa | 0 mm | - | 256 W/m² | - |
| 1787848877 | 25.56° C | 72% | 1015.8 hPa | 0 mm | - | 188 W/m² | - |
| 1787848573 | 26.11° C | 71% | 1016 hPa | 0 mm | - | 254 W/m² | - |
| 1787848272 | 27.22° C | 67% | 1015.8 hPa | 0 mm | - | 228 W/m² | - |
| 1787847967 | 26.67° C | 68% | 1015.8 hPa | 0 mm | - | 646 W/m² | - |
| 1787847666 | 26.11° C | 72% | 1016 hPa | 0 mm | - | 671 W/m² | - |
| 1787847362 | 25.56° C | 71% | 1016.5 hPa | 0 mm | - | 578 W/m² | - |
| 1787847058 | 25.56° C | 72% | 1016.3 hPa | 0 mm | - | 250 W/m² | - |
| 1787846753 | 25.56° C | 73% | 1016.4 hPa | 0 mm | - | 601 W/m² | - |
| 1787846443 | 25.56° C | 72% | 1016.5 hPa | 0 mm | - | 344 W/m² | - |
| 1787846138 | 26.11° C | 71% | 1016.1 hPa | 0 mm | - | 611 W/m² | - |
| 1787845834 | 26.11° C | 70% | 1016.3 hPa | 0 mm | - | 381 W/m² | - |
| 1787845530 | 26.11° C | 73% | 1016.3 hPa | 0 mm | - | 451 W/m² | - |
| 1787845225 | 25.56° C | 74% | 1016.1 hPa | 0 mm | - | 307 W/m² | - |
| 1787844921 | 25.56° C | 75% | 1016.4 hPa | 0 mm | - | 551 W/m² | - |
| 1787844620 | 25° C | 75% | 1016.1 hPa | 0 mm | - | 531 W/m² | - |
* Rain latest hour (hover to see other rain measurements)
** Current wind speed in m/s (hover to see current wind gust speed)